Terminal Aerodrome Forecast
Issued by NWS

Home | Current Version | Previous Version | Text Only | Print | Product List | Glossary On
Versions: 1 2 3 4 5 6 7 8 9 10 11 12 13 14 15 16 17 18 19 20 21 22
000
FTUS43 KDVN 270520
TAFCID
TAF
KCID 270520Z 2706/2806 09005KT P6SM BKN200
     FM270800 09003KT 5SM BR SCT030
      TEMPO 2710/2713 2SM BR
     FM271400 11007KT 4SM BR BKN040
     FM271700 14007KT P6SM SCT050=

USA.gov is the U.S. government's official web portal to all federal, state and local government web resources and services.